Time;durP1;ratioP1;P1;durP2;ratioP2;P2;SDS_P1;SDS_P2;PMS_P1;PMS_P2;Temp;Humidity;BMP_temperature;BMP_pressure;BME280_temperature;BME280_humidity;BME280_pressure;Samples;Min_cycle;Max_cycle;Signal;HPM_P1;HPM_P2
2021/04/06 00:00:38;;;;;;;11.57;3.47;;;;;;;;;;5011997;28;20195;-70
2021/04/06 00:03:25;;;;;;;13.63;3.30;;;;;;;;;;5012048;28;20246;-71
2021/04/06 00:06:11;;;;;;;12.63;3.77;;;;;;;;;;5011199;28;20226;-70
2021/04/06 00:08:56;;;;;;;14.20;3.70;;;;;;;;;;5011781;28;20219;-70
2021/04/06 00:11:41;;;;;;;19.63;4.33;;;;;;;;;;5011040;28;20214;-70
2021/04/06 00:14:27;;;;;;;14.27;3.80;;;;;;;;;;5011291;28;20207;-70
2021/04/06 00:17:12;;;;;;;15.13;3.47;;;;;;;;;;5011154;28;20250;-70
2021/04/06 00:19:57;;;;;;;15.40;3.70;;;;;;;;;;5011004;28;20201;-71
2021/04/06 00:22:43;;;;;;;8.37;2.90;;;;;;;;;;5011016;28;20250;-70
2021/04/06 00:25:31;;;;;;;12.25;3.58;;;;;;;;;;5011032;28;20423;-70
2021/04/06 00:28:17;;;;;;;9.60;3.20;;;;;;;;;;5011084;28;20206;-70
2021/04/06 00:31:03;;;;;;;12.57;3.60;;;;;;;;;;5010682;28;20222;-70
2021/04/06 00:33:49;;;;;;;18.87;4.50;;;;;;;;;;5011482;28;20210;-70
2021/04/06 00:36:33;;;;;;;18.47;4.03;;;;;;;;;;5009985;28;20227;-70
2021/04/06 00:39:25;;;;;;;16.90;4.28;;;;;;;;;;5010859;28;20408;-70
2021/04/06 00:42:11;;;;;;;15.40;3.67;;;;;;;;;;5010914;28;20298;-70
2021/04/06 00:44:57;;;;;;;19.67;4.10;;;;;;;;;;5011309;28;20265;-70
2021/04/06 00:47:41;;;;;;;15.77;4.70;;;;;;;;;;5010894;28;20194;-70
2021/04/06 00:50:30;;;;;;;18.97;4.30;;;;;;;;;;5011154;28;20214;-70
2021/04/06 00:53:15;;;;;;;20.13;4.67;;;;;;;;;;5010801;28;20734;-70
2021/04/06 00:56:13;;;;;;;17.73;5.10;;;;;;;;;;5009998;28;20222;-70
2021/04/06 00:58:59;;;;;;;13.53;3.73;;;;;;;;;;5011294;28;20206;-70
2021/04/06 01:01:44;;;;;;;15.23;4.00;;;;;;;;;;5010855;28;20206;-70
2021/04/06 01:04:29;;;;;;;16.17;4.50;;;;;;;;;;5010979;28;20254;-70
2021/04/06 01:07:16;;;;;;;15.97;3.53;;;;;;;;;;5009887;28;20246;-70
2021/04/06 01:10:01;;;;;;;16.50;3.50;;;;;;;;;;5011004;28;20242;-70
2021/04/06 01:12:46;;;;;;;15.97;3.70;;;;;;;;;;5009967;28;20374;-70
2021/04/06 01:15:32;;;;;;;12.17;3.23;;;;;;;;;;5010656;28;20218;-70
2021/04/06 01:18:17;;;;;;;17.33;4.20;;;;;;;;;;5009913;28;20246;-70
2021/04/06 01:21:06;;;;;;;13.53;3.57;;;;;;;;;;5010304;28;20210;-70
2021/04/06 01:23:51;;;;;;;13.97;3.60;;;;;;;;;;5010493;28;20283;-70
2021/04/06 01:26:36;;;;;;;16.03;4.87;;;;;;;;;;5009826;28;20467;-70
2021/04/06 01:29:21;;;;;;;14.47;3.60;;;;;;;;;;5010850;28;20266;-70
2021/04/06 01:32:05;;;;;;;12.80;4.00;;;;;;;;;;5010259;28;20725;-70
2021/04/06 01:34:50;;;;;;;18.50;4.27;;;;;;;;;;5010555;28;20285;-70
2021/04/06 01:37:34;;;;;;;17.87;4.67;;;;;;;;;;5010127;28;20286;-70
2021/04/06 01:40:20;;;;;;;15.90;4.53;;;;;;;;;;5010803;28;20286;-70
2021/04/06 01:43:04;;;;;;;16.03;4.83;;;;;;;;;;5010943;28;20210;-70
2021/04/06 01:45:52;;;;;;;18.43;4.63;;;;;;;;;;5010241;28;20226;-70
2021/04/06 01:48:36;;;;;;;16.63;4.53;;;;;;;;;;5013241;28;20315;-71
2021/04/06 01:51:21;;;;;;;19.20;4.90;;;;;;;;;;5013727;28;20222;-71
2021/04/06 01:54:07;;;;;;;15.50;4.23;;;;;;;;;;5013992;28;20210;-70
2021/04/06 01:56:54;;;;;;;19.03;4.60;;;;;;;;;;5013725;28;20206;-70
2021/04/06 01:59:42;;;;;;;20.50;4.30;;;;;;;;;;5014177;28;20211;-70
2021/04/06 02:02:28;;;;;;;17.57;4.83;;;;;;;;;;5013838;28;20628;-70
2021/04/06 02:05:13;;;;;;;16.30;4.30;;;;;;;;;;5000162;28;20295;-70
2021/04/06 02:08:01;;;;;;;16.63;4.27;;;;;;;;;;4993897;28;20664;-70
2021/04/06 02:10:45;;;;;;;17.87;3.90;;;;;;;;;;4994055;28;20679;-70
2021/04/06 02:13:30;;;;;;;15.00;4.23;;;;;;;;;;4999276;28;20564;-70
2021/04/06 02:16:15;;;;;;;17.73;4.13;;;;;;;;;;5012848;28;20231;-70
2021/04/06 02:18:59;;;;;;;16.17;4.30;;;;;;;;;;5013419;28;20249;-70
2021/04/06 02:21:48;;;;;;;15.00;4.30;;;;;;;;;;5013238;28;20294;-70
2021/04/06 02:24:35;;;;;;;19.37;4.43;;;;;;;;;;5012644;28;21970;-70
2021/04/06 02:27:20;;;;;;;17.50;4.43;;;;;;;;;;5011949;28;20674;-70
2021/04/06 02:30:09;;;;;;;13.90;3.70;;;;;;;;;;5012316;28;21039;-70
2021/04/06 02:32:54;;;;;;;19.43;4.43;;;;;;;;;;5012122;28;20230;-70
2021/04/06 02:35:39;;;;;;;17.93;4.13;;;;;;;;;;5012072;28;20592;-70
2021/04/06 02:38:23;;;;;;;16.53;4.53;;;;;;;;;;5012043;28;20228;-70
2021/04/06 02:41:08;;;;;;;16.83;4.30;;;;;;;;;;5011214;28;20210;-70
2021/04/06 02:43:54;;;;;;;14.43;3.93;;;;;;;;;;5012129;28;20202;-70
2021/04/06 02:46:41;;;;;;;14.63;3.60;;;;;;;;;;5009728;28;20686;-70
2021/04/06 02:49:26;;;;;;;11.73;3.50;;;;;;;;;;5013193;28;20253;-70
2021/04/06 02:52:10;;;;;;;13.30;4.03;;;;;;;;;;5012955;28;20643;-70
2021/04/06 02:54:55;;;;;;;12.73;4.00;;;;;;;;;;5012795;28;20808;-70
2021/04/06 02:57:40;;;;;;;10.33;3.27;;;;;;;;;;5012535;28;20317;-71
2021/04/06 03:00:31;;;;;;;11.83;3.50;;;;;;;;;;5012126;28;20258;-70
2021/04/06 03:03:20;;;;;;;11.55;3.58;;;;;;;;;;5012005;28;20827;-70
2021/04/06 03:06:08;;;;;;;10.57;3.07;;;;;;;;;;5012324;28;20246;-70
2021/04/06 03:08:58;;;;;;;7.77;2.87;;;;;;;;;;5012814;28;20203;-70
2021/04/06 03:11:44;;;;;;;12.20;3.07;;;;;;;;;;5012318;28;20234;-70
2021/04/06 03:14:29;;;;;;;8.27;2.83;;;;;;;;;;5012720;28;20202;-71
2021/04/06 03:17:13;;;;;;;11.57;2.73;;;;;;;;;;5011556;28;20218;-70
2021/04/06 03:19:59;;;;;;;9.10;3.27;;;;;;;;;;5012774;28;20550;-70
2021/04/06 03:22:43;;;;;;;10.53;3.27;;;;;;;;;;5012904;28;20332;-71
2021/04/06 03:25:31;;;;;;;9.93;3.17;;;;;;;;;;5012535;28;20235;-71
2021/04/06 03:28:15;;;;;;;6.83;2.00;;;;;;;;;;5012276;28;20724;-71
2021/04/06 03:31:10;;;;;;;11.10;2.83;;;;;;;;;;5012380;28;20238;-70
2021/04/06 03:33:56;;;;;;;7.83;2.73;;;;;;;;;;5012364;28;20568;-70
2021/04/06 03:36:41;;;;;;;9.30;2.80;;;;;;;;;;5011949;28;20226;-71
2021/04/06 03:39:27;;;;;;;11.77;3.20;;;;;;;;;;5012186;28;20736;-70
2021/04/06 03:42:11;;;;;;;11.87;3.10;;;;;;;;;;5012436;28;20622;-71
2021/04/06 03:45:04;;;;;;;7.47;2.87;;;;;;;;;;5012099;28;20222;-71
2021/04/06 03:47:51;;;;;;;10.00;3.20;;;;;;;;;;5011563;28;20335;-70
2021/04/06 03:50:37;;;;;;;12.38;3.75;;;;;;;;;;5011626;28;20982;-70
2021/04/06 03:53:23;;;;;;;8.03;2.77;;;;;;;;;;5011949;28;20748;-70
2021/04/06 03:56:08;;;;;;;9.10;3.00;;;;;;;;;;5011055;28;20230;-70
2021/04/06 03:58:56;;;;;;;11.87;3.20;;;;;;;;;;5011782;28;20198;-70
2021/04/06 04:01:40;;;;;;;7.77;3.07;;;;;;;;;;5011927;28;20258;-70
2021/04/06 04:04:25;;;;;;;9.60;2.93;;;;;;;;;;5011324;28;20215;-71
2021/04/06 04:07:12;;;;;;;10.77;3.30;;;;;;;;;;5010694;28;20222;-70
2021/04/06 04:09:57;;;;;;;11.20;2.77;;;;;;;;;;5011454;28;20231;-71
2021/04/06 04:12:42;;;;;;;9.83;2.57;;;;;;;;;;5011656;28;20230;-70
2021/04/06 04:15:26;;;;;;;14.50;3.20;;;;;;;;;;5011729;28;20716;-71
2021/04/06 04:18:11;;;;;;;14.97;3.37;;;;;;;;;;5010796;28;20214;-70
2021/04/06 04:20:56;;;;;;;12.13;2.37;;;;;;;;;;5011451;28;20802;-71
2021/04/06 04:23:40;;;;;;;10.57;3.03;;;;;;;;;;5011397;28;20569;-69
2021/04/06 04:26:25;;;;;;;17.20;4.93;;;;;;;;;;5010498;28;20762;-70
2021/04/06 04:29:10;;;;;;;15.97;4.37;;;;;;;;;;5011573;28;20214;-70
2021/04/06 04:31:54;;;;;;;9.93;3.77;;;;;;;;;;5011028;28;20294;-70
2021/04/06 04:34:39;;;;;;;7.50;3.53;;;;;;;;;;5011289;28;20269;-70
2021/04/06 04:37:24;;;;;;;10.87;3.23;;;;;;;;;;5010512;28;20218;-70
2021/04/06 04:40:09;;;;;;;12.10;3.00;;;;;;;;;;5010931;28;20427;-70
2021/04/06 04:42:55;;;;;;;8.83;3.27;;;;;;;;;;5011007;28;20267;-71
2021/04/06 04:45:40;;;;;;;12.60;3.97;;;;;;;;;;5011280;28;20242;-70
2021/04/06 04:48:24;;;;;;;13.30;5.93;;;;;;;;;;5009609;28;20222;-70
2021/04/06 04:51:08;;;;;;;12.93;5.70;;;;;;;;;;5011001;28;20402;-71
2021/04/06 04:53:53;;;;;;;13.23;7.00;;;;;;;;;;5010925;28;20210;-70
2021/04/06 04:56:37;;;;;;;14.97;5.80;;;;;;;;;;5010605;28;20199;-70
2021/04/06 04:59:23;;;;;;;11.23;4.10;;;;;;;;;;5010944;28;20214;-70
2021/04/06 05:02:07;;;;;;;12.03;3.30;;;;;;;;;;5011320;28;20685;-70
2021/04/06 05:04:51;;;;;;;13.27;3.40;;;;;;;;;;5011247;28;20532;-71
2021/04/06 05:07:36;;;;;;;15.47;3.60;;;;;;;;;;5010812;28;20298;-70
2021/04/06 05:10:20;;;;;;;11.23;3.30;;;;;;;;;;5011154;28;20561;-69
2021/04/06 05:13:05;;;;;;;10.13;3.27;;;;;;;;;;5010722;28;20242;-69
2021/04/06 05:15:50;;;;;;;10.17;3.17;;;;;;;;;;5010677;28;20566;-70
2021/04/06 05:18:35;;;;;;;11.03;3.63;;;;;;;;;;5007641;28;20206;-70
2021/04/06 05:21:19;;;;;;;12.83;3.57;;;;;;;;;;5009504;28;20210;-70
2021/04/06 05:24:05;;;;;;;11.73;3.57;;;;;;;;;;5009472;28;20811;-70
2021/04/06 05:26:49;;;;;;;15.17;3.73;;;;;;;;;;5013568;28;20210;-69
2021/04/06 05:29:34;;;;;;;13.73;4.25;;;;;;;;;;5014490;28;20479;-70
2021/04/06 05:32:19;;;;;;;15.00;3.67;;;;;;;;;;5014296;28;20226;-70
2021/04/06 05:35:04;;;;;;;14.03;3.27;;;;;;;;;;5014613;28;20848;-69
2021/04/06 05:37:48;;;;;;;11.17;3.53;;;;;;;;;;5013645;28;20345;-70
2021/04/06 05:40:33;;;;;;;11.07;3.50;;;;;;;;;;5014190;28;20222;-70
2021/04/06 05:43:18;;;;;;;13.90;3.90;;;;;;;;;;4994832;28;20215;-70
2021/04/06 05:46:03;;;;;;;11.63;4.30;;;;;;;;;;4994334;28;20242;-70
2021/04/06 05:48:49;;;;;;;9.70;4.40;;;;;;;;;;4994858;28;20227;-70
2021/04/06 05:51:33;;;;;;;12.70;4.00;;;;;;;;;;4994714;28;20219;-70
2021/04/06 05:54:18;;;;;;;12.43;3.40;;;;;;;;;;4993990;28;20714;-70
2021/04/06 05:57:02;;;;;;;9.57;2.97;;;;;;;;;;4993842;28;20296;-70
2021/04/06 05:59:47;;;;;;;8.67;3.40;;;;;;;;;;4994754;28;20230;-70
2021/04/06 06:02:31;;;;;;;11.10;3.47;;;;;;;;;;4993860;28;20425;-70
2021/04/06 06:05:17;;;;;;;8.83;2.80;;;;;;;;;;4994809;28;20753;-70
2021/04/06 06:08:07;;;;;;;9.40;3.00;;;;;;;;;;4994040;28;20207;-70
2021/04/06 06:11:00;;;;;;;6.47;2.60;;;;;;;;;;4994404;28;20199;-70
2021/04/06 06:13:45;;;;;;;12.90;3.60;;;;;;;;;;5005287;28;20326;-70
2021/04/06 06:16:31;;;;;;;9.95;3.40;;;;;;;;;;5013084;28;20424;-70
2021/04/06 06:19:16;;;;;;;7.07;2.90;;;;;;;;;;5013785;28;20210;-70
2021/04/06 06:22:10;;;;;;;7.77;2.97;;;;;;;;;;5013441;28;20207;-72
2021/04/06 06:25:01;;;;;;;9.37;3.27;;;;;;;;;;5010474;28;20318;-71
2021/04/06 06:27:47;;;;;;;7.70;3.70;;;;;;;;;;4999137;28;20299;-72
2021/04/06 06:30:34;;;;;;;9.10;4.63;;;;;;;;;;5013323;28;20209;-75
2021/04/06 06:33:21;;;;;;;7.13;3.40;;;;;;;;;;5011931;28;20235;-70
2021/04/06 06:36:09;;;;;;;9.17;2.80;;;;;;;;;;5012062;28;20299;-74
2021/04/06 06:39:01;;;;;;;7.43;3.33;;;;;;;;;;5013065;28;20214;-73
2021/04/06 06:41:56;;;;;;;8.20;3.10;;;;;;;;;;5012970;28;20223;-76
2021/04/06 06:44:40;;;;;;;8.77;3.00;;;;;;;;;;5013039;28;20267;-75
2021/04/06 06:47:25;;;;;;;7.73;2.90;;;;;;;;;;5012845;28;20275;-76
2021/04/06 06:50:11;;;;;;;7.17;2.70;;;;;;;;;;5013021;28;20283;-72
2021/04/06 06:52:56;;;;;;;7.00;2.77;;;;;;;;;;5012709;28;20242;-76
2021/04/06 06:55:50;;;;;;;9.67;3.37;;;;;;;;;;5013000;28;20326;-74
2021/04/06 06:58:36;;;;;;;7.32;3.80;;;;;;;;;;5010552;28;20933;-73
2021/04/06 07:01:23;;;;;;;8.13;2.90;;;;;;;;;;5002160;28;20253;-72
2021/04/06 07:04:08;;;;;;;7.97;2.60;;;;;;;;;;5001690;28;20210;-72
2021/04/06 07:06:58;;;;;;;5.63;2.50;;;;;;;;;;5000165;28;20214;-72
2021/04/06 07:09:43;;;;;;;5.10;2.30;;;;;;;;;;5012028;28;20723;-72
2021/04/06 07:12:29;;;;;;;8.77;2.47;;;;;;;;;;5012693;28;20229;-72
2021/04/06 07:15:15;;;;;;;8.63;2.57;;;;;;;;;;5012291;28;20284;-73
2021/04/06 07:18:02;;;;;;;9.70;2.70;;;;;;;;;;5011636;28;20240;-73
2021/04/06 07:20:50;;;;;;;6.87;2.37;;;;;;;;;;5012430;28;20286;-72
2021/04/06 07:23:35;;;;;;;6.50;3.13;;;;;;;;;;5012614;28;20214;-73
2021/04/06 07:26:21;;;;;;;8.60;3.73;;;;;;;;;;5011321;28;20229;-73
2021/04/06 07:29:07;;;;;;;8.80;4.00;;;;;;;;;;5011963;28;20261;-72
2021/04/06 07:31:52;;;;;;;9.23;4.17;;;;;;;;;;5011993;28;20228;-72
2021/04/06 07:34:37;;;;;;;9.70;4.40;;;;;;;;;;5012077;28;20225;-73
2021/04/06 07:37:22;;;;;;;8.80;4.37;;;;;;;;;;5011656;28;20255;-73
2021/04/06 07:40:09;;;;;;;5.63;3.13;;;;;;;;;;5011890;28;20243;-74
2021/04/06 07:42:53;;;;;;;7.40;2.73;;;;;;;;;;5011197;28;20245;-73
2021/04/06 07:45:40;;;;;;;8.90;4.20;;;;;;;;;;5010975;28;20242;-76
2021/04/06 07:48:41;;;;;;;7.20;3.63;;;;;;;;;;5010613;28;20220;-74
2021/04/06 07:51:28;;;;;;;5.67;2.37;;;;;;;;;;5005125;28;20224;-74
2021/04/06 07:54:14;;;;;;;3.10;1.53;;;;;;;;;;5011775;28;20217;-73
2021/04/06 07:56:59;;;;;;;4.30;1.93;;;;;;;;;;4991700;28;20284;-74
2021/04/06 07:59:49;;;;;;;4.50;2.00;;;;;;;;;;5012032;28;20709;-73
2021/04/06 08:02:42;;;;;;;4.17;1.87;;;;;;;;;;4992227;28;20219;-74
2021/04/06 08:05:26;;;;;;;5.10;2.10;;;;;;;;;;4991805;28;20265;-72
2021/04/06 08:08:25;;;;;;;2.87;1.50;;;;;;;;;;5010561;28;20238;-72
2021/04/06 08:11:10;;;;;;;3.10;1.70;;;;;;;;;;5011161;28;20196;-72
2021/04/06 08:13:55;;;;;;;4.13;1.87;;;;;;;;;;5002590;28;20627;-72
2021/04/06 08:16:39;;;;;;;3.40;1.83;;;;;;;;;;5010796;28;20243;-71
2021/04/06 08:19:30;;;;;;;3.63;1.53;;;;;;;;;;5011067;28;20228;-72
2021/04/06 08:22:21;;;;;;;5.20;1.70;;;;;;;;;;5011216;28;20206;-75
2021/04/06 08:25:26;;;;;;;5.17;1.67;;;;;;;;;;5010795;28;20281;-73
2021/04/06 08:28:29;;;;;;;3.60;2.10;;;;;;;;;;5010589;28;20213;-72
2021/04/06 08:31:32;;;;;;;4.25;1.90;;;;;;;;;;4992424;28;20773;-71
2021/04/06 08:34:39;;;;;;;3.77;1.53;;;;;;;;;;5011027;28;20208;-74
2021/04/06 08:37:35;;;;;;;5.47;1.70;;;;;;;;;;5010596;28;20557;-72
2021/04/06 08:40:40;;;;;;;3.03;1.33;;;;;;;;;;5010990;28;20613;-74
2021/04/06 08:43:26;;;;;;;5.80;1.40;;;;;;;;;;5009001;28;20204;-71
2021/04/06 08:46:11;;;;;;;2.13;1.37;;;;;;;;;;5010404;28;20268;-73
2021/04/06 08:48:57;;;;;;;1.67;1.10;;;;;;;;;;4996323;28;20208;-73
2021/04/06 08:51:42;;;;;;;5.67;1.47;;;;;;;;;;5010999;28;20249;-72
2021/04/06 08:54:29;;;;;;;3.10;1.07;;;;;;;;;;5010967;28;20710;-72
2021/04/06 08:57:13;;;;;;;2.97;1.23;;;;;;;;;;5009377;28;20210;-73
2021/04/06 09:00:04;;;;;;;3.50;1.50;;;;;;;;;;5011147;28;20602;-73
2021/04/06 09:03:00;;;;;;;2.60;1.40;;;;;;;;;;5010997;28;20204;-75
2021/04/06 09:05:44;;;;;;;3.70;1.83;;;;;;;;;;5010185;28;20282;-72
2021/04/06 09:08:29;;;;;;;4.73;1.97;;;;;;;;;;5010613;28;20216;-72
2021/04/06 09:11:15;;;;;;;4.63;1.63;;;;;;;;;;5010431;28;20286;-73
2021/04/06 09:13:59;;;;;;;5.33;2.00;;;;;;;;;;5010358;28;20219;-72
2021/04/06 09:16:44;;;;;;;4.57;2.00;;;;;;;;;;5010052;28;20274;-73
2021/04/06 09:19:28;;;;;;;4.40;2.10;;;;;;;;;;5009284;28;20478;-73
2021/04/06 09:22:13;;;;;;;5.27;2.07;;;;;;;;;;5009590;28;20212;-73
2021/04/06 09:24:58;;;;;;;4.37;2.00;;;;;;;;;;5010664;28;20221;-72
2021/04/06 09:27:51;;;;;;;3.93;2.20;;;;;;;;;;4990049;28;20237;-71
2021/04/06 09:30:43;;;;;;;5.07;2.60;;;;;;;;;;4993372;28;20237;-73
2021/04/06 09:33:29;;;;;;;4.00;1.97;;;;;;;;;;5005646;28;20274;-71
2021/04/06 09:36:13;;;;;;;7.33;2.03;;;;;;;;;;5009783;28;20310;-71
2021/04/06 09:38:57;;;;;;;6.87;2.30;;;;;;;;;;5009808;28;20217;-74
2021/04/06 09:41:43;;;;;;;2.77;1.70;;;;;;;;;;5010511;28;20248;-74
2021/04/06 09:44:29;;;;;;;1.90;1.33;;;;;;;;;;5005464;28;20223;-72
2021/04/06 09:47:14;;;;;;;3.07;1.53;;;;;;;;;;5010065;28;20195;-76
2021/04/06 09:49:59;;;;;;;4.38;1.90;;;;;;;;;;5009653;28;20459;-72
2021/04/06 09:52:43;;;;;;;3.67;1.90;;;;;;;;;;5010257;28;20626;-70
2021/04/06 09:55:29;;;;;;;3.17;1.80;;;;;;;;;;5010216;28;20219;-73
2021/04/06 09:58:13;;;;;;;5.33;1.90;;;;;;;;;;5009435;28;20226;-73
2021/04/06 10:00:59;;;;;;;5.60;2.37;;;;;;;;;;4990735;28;20721;-73
2021/04/06 10:03:44;;;;;;;5.55;2.83;;;;;;;;;;4990150;28;20421;-74
2021/04/06 10:06:36;;;;;;;5.27;2.80;;;;;;;;;;4990226;28;20674;-71
2021/04/06 10:09:22;;;;;;;5.60;2.70;;;;;;;;;;5010866;28;20261;-72
2021/04/06 10:12:07;;;;;;;4.27;2.43;;;;;;;;;;5013253;28;20824;-71
2021/04/06 10:14:52;;;;;;;6.77;3.07;;;;;;;;;;5013516;28;20258;-72
2021/04/06 10:17:39;;;;;;;3.90;2.37;;;;;;;;;;5012818;28;20203;-72
2021/04/06 10:20:24;;;;;;;5.57;2.00;;;;;;;;;;5013415;28;20202;-71
2021/04/06 10:23:09;;;;;;;6.40;2.30;;;;;;;;;;5013252;28;20206;-71
2021/04/06 10:25:53;;;;;;;7.33;2.80;;;;;;;;;;5011453;28;20242;-70
2021/04/06 10:28:38;;;;;;;4.33;2.07;;;;;;;;;;5008398;28;20294;-70
2021/04/06 10:31:22;;;;;;;9.93;3.90;;;;;;;;;;5013044;28;20261;-71
2021/04/06 10:34:08;;;;;;;6.43;2.90;;;;;;;;;;5013318;28;20256;-71
2021/04/06 10:36:59;;;;;;;5.70;2.50;;;;;;;;;;5013117;28;20759;-71
2021/04/06 10:39:44;;;;;;;2.93;1.60;;;;;;;;;;5013014;28;20240;-72
2021/04/06 10:42:28;;;;;;;2.47;1.20;;;;;;;;;;5012371;28;20208;-72
2021/04/06 10:45:13;;;;;;;3.53;1.53;;;;;;;;;;5013181;28;20263;-71
2021/04/06 10:48:03;;;;;;;4.50;1.90;;;;;;;;;;5011975;28;20207;-69
2021/04/06 10:50:49;;;;;;;3.47;1.70;;;;;;;;;;5012294;28;20457;-71
2021/04/06 10:53:37;;;;;;;5.23;2.07;;;;;;;;;;5012476;28;20234;-71
2021/04/06 10:56:22;;;;;;;4.97;1.70;;;;;;;;;;5012238;28;20286;-72
2021/04/06 10:59:08;;;;;;;6.53;2.30;;;;;;;;;;5012612;28;20206;-72
2021/04/06 11:01:52;;;;;;;4.20;1.97;;;;;;;;;;5012384;28;20246;-70
2021/04/06 11:04:38;;;;;;;4.47;1.80;;;;;;;;;;5012285;28;20227;-70
2021/04/06 11:07:29;;;;;;;6.93;2.17;;;;;;;;;;5011706;28;20206;-71
2021/04/06 11:10:13;;;;;;;3.50;2.27;;;;;;;;;;5012779;28;20199;-70
2021/04/06 11:12:58;;;;;;;5.20;1.80;;;;;;;;;;5012101;28;20235;-72
2021/04/06 11:15:43;;;;;;;3.27;1.70;;;;;;;;;;5012601;28;20379;-70
2021/04/06 11:18:27;;;;;;;3.73;1.90;;;;;;;;;;5011920;28;20256;-71
2021/04/06 11:21:12;;;;;;;4.97;2.10;;;;;;;;;;5011871;28;20597;-71
2021/04/06 11:23:57;;;;;;;6.37;2.13;;;;;;;;;;5012452;28;20205;-71
2021/04/06 11:26:42;;;;;;;6.85;2.83;;;;;;;;;;5010623;28;20439;-70
2021/04/06 11:29:27;;;;;;;5.30;2.07;;;;;;;;;;5007368;28;20202;-70
2021/04/06 11:32:12;;;;;;;4.23;2.30;;;;;;;;;;5017292;28;20772;-69
2021/04/06 11:34:56;;;;;;;5.20;2.57;;;;;;;;;;5011519;28;20584;-69
2021/04/06 11:37:41;;;;;;;4.97;1.90;;;;;;;;;;5010811;28;20279;-70
2021/04/06 11:40:26;;;;;;;6.30;3.07;;;;;;;;;;5011923;28;20244;-70
2021/04/06 11:43:11;;;;;;;3.88;1.58;;;;;;;;;;5004799;28;20769;-69
2021/04/06 11:45:55;;;;;;;2.50;1.40;;;;;;;;;;5006047;28;20244;-69
2021/04/06 11:48:40;;;;;;;1.63;0.80;;;;;;;;;;5011648;28;20249;-69
2021/04/06 11:51:24;;;;;;;2.13;1.30;;;;;;;;;;5011890;28;20253;-69
2021/04/06 11:54:10;;;;;;;4.73;2.53;;;;;;;;;;5005051;28;20273;-69
2021/04/06 11:56:56;;;;;;;3.47;1.37;;;;;;;;;;5010825;28;20211;-68
2021/04/06 11:59:40;;;;;;;1.53;1.20;;;;;;;;;;5011677;28;20207;-68
2021/04/06 12:02:25;;;;;;;2.77;1.27;;;;;;;;;;5011487;28;20573;-68
2021/04/06 12:05:10;;;;;;;2.27;1.43;;;;;;;;;;5011482;28;20218;-68
2021/04/06 12:07:54;;;;;;;3.63;1.73;;;;;;;;;;5011256;28;20206;-68
2021/04/06 12:10:39;;;;;;;3.07;1.77;;;;;;;;;;5011299;28;20231;-68
2021/04/06 12:13:24;;;;;;;5.68;2.30;;;;;;;;;;5010681;28;20479;-69
2021/04/06 12:16:09;;;;;;;5.00;2.37;;;;;;;;;;5010975;28;20582;-69
2021/04/06 12:18:53;;;;;;;6.23;2.27;;;;;;;;;;5010505;28;20214;-68
2021/04/06 12:21:38;;;;;;;5.03;1.70;;;;;;;;;;5011466;28;20211;-68
2021/04/06 12:24:23;;;;;;;5.30;1.60;;;;;;;;;;5011225;28;20219;-69
2021/04/06 12:27:07;;;;;;;5.37;2.13;;;;;;;;;;5010644;28;20692;-68
2021/04/06 12:29:53;;;;;;;4.37;1.93;;;;;;;;;;5011193;28;20295;-68
2021/04/06 12:32:37;;;;;;;6.77;2.70;;;;;;;;;;5010884;28;20219;-69
2021/04/06 12:35:21;;;;;;;6.37;2.53;;;;;;;;;;5010570;28;20265;-68
2021/04/06 12:38:06;;;;;;;7.77;3.90;;;;;;;;;;5010718;28;20202;-69
2021/04/06 12:40:50;;;;;;;6.17;2.60;;;;;;;;;;5011071;28;20195;-68
2021/04/06 12:43:36;;;;;;;5.43;2.53;;;;;;;;;;5010893;28;20227;-68
2021/04/06 12:46:21;;;;;;;7.13;2.40;;;;;;;;;;5009933;28;20202;-68
2021/04/06 12:49:05;;;;;;;4.47;2.20;;;;;;;;;;5010701;28;20203;-68
2021/04/06 12:51:50;;;;;;;2.03;1.03;;;;;;;;;;5010860;28;20287;-68
2021/04/06 12:54:34;;;;;;;1.43;0.90;;;;;;;;;;5010769;28;20230;-68
2021/04/06 12:57:19;;;;;;;2.40;1.10;;;;;;;;;;5010350;28;20597;-67
2021/04/06 13:00:05;;;;;;;2.23;1.20;;;;;;;;;;5010633;28;20203;-68
2021/04/06 13:02:51;;;;;;;0.87;0.73;;;;;;;;;;5010838;28;20225;-68
2021/04/06 13:05:35;;;;;;;3.77;1.00;;;;;;;;;;5010681;28;20258;-68
2021/04/06 13:08:19;;;;;;;2.77;1.37;;;;;;;;;;5010500;28;20203;-69
2021/04/06 13:11:04;;;;;;;4.10;1.33;;;;;;;;;;5010377;28;20205;-69
2021/04/06 13:13:48;;;;;;;2.97;1.40;;;;;;;;;;5010708;28;20234;-67
2021/04/06 13:16:34;;;;;;;2.75;1.50;;;;;;;;;;5009404;28;20501;-67
2021/04/06 13:19:19;;;;;;;2.90;2.50;;;;;;;;;;5010868;28;20234;-69
2021/04/06 13:22:04;;;;;;;6.20;2.00;;;;;;;;;;5010476;28;20209;-69
2021/04/06 13:24:48;;;;;;;5.20;2.30;;;;;;;;;;4991072;28;20274;-69
2021/04/06 13:27:33;;;;;;;5.57;2.43;;;;;;;;;;5006032;28;20625;-70
2021/04/06 13:30:19;;;;;;;4.90;2.57;;;;;;;;;;5007741;28;20254;-70
2021/04/06 13:33:04;;;;;;;5.03;2.33;;;;;;;;;;5007388;28;20405;-72
2021/04/06 13:35:51;;;;;;;6.20;2.30;;;;;;;;;;5009129;28;20770;-72
2021/04/06 13:38:36;;;;;;;3.90;2.23;;;;;;;;;;4990741;28;20258;-72
2021/04/06 13:41:21;;;;;;;5.10;2.07;;;;;;;;;;4999842;28;20200;-73
2021/04/06 13:44:06;;;;;;;6.87;2.73;;;;;;;;;;5012137;28;20286;-72
2021/04/06 13:46:50;;;;;;;7.47;2.93;;;;;;;;;;5013077;28;20420;-71
2021/04/06 13:49:35;;;;;;;5.90;2.37;;;;;;;;;;5014119;28;20242;-72
2021/04/06 13:52:20;;;;;;;7.33;2.47;;;;;;;;;;5013917;28;20266;-72
2021/04/06 13:55:06;;;;;;;8.17;2.73;;;;;;;;;;5013619;28;20628;-71
2021/04/06 13:57:51;;;;;;;9.90;2.73;;;;;;;;;;5013357;28;20330;-73
2021/04/06 14:00:37;;;;;;;8.37;2.67;;;;;;;;;;5014093;28;20295;-70
2021/04/06 14:03:21;;;;;;;8.77;2.60;;;;;;;;;;5013796;28;20620;-70
2021/04/06 14:06:06;;;;;;;5.53;2.77;;;;;;;;;;5013222;28;20235;-71
2021/04/06 14:08:51;;;;;;;5.70;2.63;;;;;;;;;;5014165;28;20670;-72
2021/04/06 14:11:36;;;;;;;6.63;2.40;;;;;;;;;;5013550;28;20262;-71
2021/04/06 14:14:20;;;;;;;6.03;2.63;;;;;;;;;;5014095;28;20281;-70
2021/04/06 14:17:05;;;;;;;7.03;2.30;;;;;;;;;;5012897;28;20496;-70
2021/04/06 14:19:49;;;;;;;5.43;1.73;;;;;;;;;;5012398;28;20218;-70
2021/04/06 14:22:34;;;;;;;5.63;1.87;;;;;;;;;;5011611;28;20210;-71
2021/04/06 14:25:20;;;;;;;4.83;2.20;;;;;;;;;;5004667;28;20230;-71
2021/04/06 14:28:06;;;;;;;4.53;2.00;;;;;;;;;;5011544;28;20210;-71
2021/04/06 14:30:52;;;;;;;3.30;1.80;;;;;;;;;;5012613;28;20199;-71
2021/04/06 14:33:36;;;;;;;6.00;2.57;;;;;;;;;;5012004;28;20234;-70
2021/04/06 14:36:21;;;;;;;7.57;2.33;;;;;;;;;;5011451;28;20262;-73
2021/04/06 14:39:06;;;;;;;6.27;2.10;;;;;;;;;;5011717;28;20202;-73
2021/04/06 14:41:52;;;;;;;2.93;1.47;;;;;;;;;;5011836;28;20215;-72
2021/04/06 14:44:36;;;;;;;6.80;2.17;;;;;;;;;;5010314;28;20222;-72
2021/04/06 14:47:21;;;;;;;5.03;1.95;;;;;;;;;;5011387;28;20420;-75
2021/04/06 14:50:06;;;;;;;4.60;2.33;;;;;;;;;;5011938;28;20246;-72
2021/04/06 14:52:50;;;;;;;11.93;7.87;;;;;;;;;;5011640;28;20306;-72
2021/04/06 14:55:35;;;;;;;10.67;7.57;;;;;;;;;;5010556;28;20225;-74
2021/04/06 14:58:25;;;;;;;14.20;9.33;;;;;;;;;;5011972;28;20728;-73
2021/04/06 15:01:09;;;;;;;9.57;6.73;;;;;;;;;;5010116;28;20194;-74
2021/04/06 15:03:55;;;;;;;5.17;4.27;;;;;;;;;;5011489;28;20242;-74
2021/04/06 15:06:39;;;;;;;3.77;2.10;;;;;;;;;;5008172;28;20203;-72
2021/04/06 15:09:24;;;;;;;7.03;2.63;;;;;;;;;;5011258;28;20201;-70
2021/04/06 15:12:09;;;;;;;5.77;3.17;;;;;;;;;;5013970;28;20206;-70
2021/04/06 15:14:54;;;;;;;5.77;3.73;;;;;;;;;;5011329;28;20273;-70
2021/04/06 15:17:38;;;;;;;5.83;3.50;;;;;;;;;;5008096;28;20568;-70
2021/04/06 15:20:23;;;;;;;6.30;3.22;;;;;;;;;;5008432;28;20411;-70
2021/04/06 15:23:10;;;;;;;2.93;1.60;;;;;;;;;;5011227;28;20601;-71
2021/04/06 15:25:55;;;;;;;5.63;1.80;;;;;;;;;;5010660;28;20615;-70
2021/04/06 15:28:40;;;;;;;6.03;1.90;;;;;;;;;;5011101;28;20726;-70
2021/04/06 15:31:25;;;;;;;5.47;1.80;;;;;;;;;;5011134;28;20213;-70
2021/04/06 15:34:10;;;;;;;3.50;1.60;;;;;;;;;;5010230;28;20471;-68
2021/04/06 15:36:54;;;;;;;4.53;1.70;;;;;;;;;;5010278;28;20523;-71
2021/04/06 15:39:39;;;;;;;4.97;2.00;;;;;;;;;;5012035;28;20210;-71
2021/04/06 15:42:24;;;;;;;6.63;4.70;;;;;;;;;;4992446;28;20262;-71
2021/04/06 15:45:09;;;;;;;20.47;12.40;;;;;;;;;;4992544;28;20227;-71
2021/04/06 15:47:54;;;;;;;59.57;31.77;;;;;;;;;;4992183;28;20262;-72
2021/04/06 15:50:40;;;;;;;54.03;31.13;;;;;;;;;;4992237;28;20208;-69
2021/04/06 15:53:24;;;;;;;57.10;35.00;;;;;;;;;;4992599;28;20235;-68
2021/04/06 15:56:09;;;;;;;22.83;14.83;;;;;;;;;;4991637;28;20298;-69
2021/04/06 15:58:53;;;;;;;22.93;17.30;;;;;;;;;;4992393;28;20278;-68
2021/04/06 16:01:38;;;;;;;8.60;7.67;;;;;;;;;;4992521;28;20288;-69
2021/04/06 16:04:23;;;;;;;10.53;5.70;;;;;;;;;;4992063;28;20701;-69
2021/04/06 16:07:08;;;;;;;3.42;1.60;;;;;;;;;;4990352;28;20424;-69
2021/04/06 16:09:54;;;;;;;3.07;1.73;;;;;;;;;;4998783;28;20206;-72
2021/04/06 16:12:38;;;;;;;6.77;2.10;;;;;;;;;;4996723;28;20238;-71
2021/04/06 16:15:25;;;;;;;8.07;1.97;;;;;;;;;;4994262;28;20227;-70
2021/04/06 16:18:10;;;;;;;5.30;1.70;;;;;;;;;;5007747;28;20209;-70
2021/04/06 16:20:55;;;;;;;4.60;2.22;;;;;;;;;;5008349;28;20419;-72
2021/04/06 16:23:40;;;;;;;6.07;2.50;;;;;;;;;;5011493;28;20217;-69
2021/04/06 16:26:25;;;;;;;9.77;5.60;;;;;;;;;;5010580;28;20199;-69
2021/04/06 16:29:10;;;;;;;5.60;3.20;;;;;;;;;;5011107;28;20194;-70